createdAt,value
2023-04-02T00:01:53.342Z,40062.20
2023-04-02T00:07:17.311Z,40354.50
2023-04-02T00:12:26.735Z,40322.19
2023-04-02T00:17:33.290Z,39995.13
2023-04-02T00:22:37.078Z,39940.35
2023-04-02T00:27:42.018Z,40187.38
2023-04-02T00:32:47.614Z,40465.88
2023-04-02T00:37:53.168Z,41225.95
2023-04-02T00:43:01.254Z,41360.59
2023-04-02T00:48:21.372Z,40943.05
2023-04-02T00:53:29.733Z,41327.29
2023-04-02T00:58:36.712Z,41085.78
2023-04-02T01:03:40.179Z,40820.58
2023-04-02T01:08:56.343Z,41370.16
2023-04-02T01:14:07.952Z,41446.77
2023-04-02T01:19:29.707Z,41883.65
2023-04-02T01:24:35.268Z,41546.81
2023-04-02T01:29:46.183Z,42126.20
2023-04-02T01:34:51.606Z,41841.86
2023-04-02T01:40:06.020Z,41124.19
2023-04-02T01:45:12.323Z,39961.29
2023-04-02T01:50:23.756Z,39524.08
2023-04-02T01:55:34.343Z,39711.54
2023-04-02T02:00:43.320Z,39509.09
2023-04-02T02:05:47.525Z,39561.51
2023-04-02T02:10:54.336Z,39339.46
2023-04-02T02:16:05.626Z,39534.11
2023-04-02T02:21:11.565Z,40318.57
2023-04-02T02:26:16.364Z,39147.08
2023-04-02T02:31:28.097Z,39551.52
2023-04-02T02:36:38.082Z,40060.70
2023-04-02T02:41:46.674Z,39501.68
2023-04-02T02:46:54.790Z,39969.68
2023-04-02T02:52:01.733Z,40282.43
2023-04-02T02:57:16.158Z,40098.86
2023-04-02T03:02:25.270Z,40164.25
2023-04-02T03:07:31.161Z,40567.16
2023-04-02T03:12:42.238Z,39999.42
2023-04-02T03:17:58.358Z,40229.21
2023-04-02T03:23:06.832Z,40362.46
2023-04-02T03:28:15.517Z,41239.32
2023-04-02T03:33:23.155Z,41085.72
2023-04-02T03:38:34.323Z,41804.13
2023-04-02T03:43:41.993Z,41448.22
2023-04-02T03:48:52.417Z,41276.06
2023-04-02T03:53:57.243Z,42066.71
2023-04-02T03:59:07.838Z,41841.30
2023-04-02T04:04:16.151Z,42592.70
2023-04-02T04:09:23.530Z,42570.85
2023-04-02T04:14:32.261Z,42568.39
2023-04-02T04:19:45.395Z,42807.73
2023-04-02T04:24:50.796Z,41662.26
2023-04-02T04:30:03.944Z,41422.09
2023-04-02T04:35:20.042Z,41137.85
2023-04-02T04:40:30.615Z,41727.16
2023-04-02T04:45:42.936Z,41913.42
2023-04-02T04:50:52.763Z,42379.87
2023-04-02T04:56:12.508Z,41890.77
2023-04-02T05:01:26.816Z,42048.12
2023-04-02T05:06:39.156Z,41581.53
2023-04-02T05:11:47.169Z,41611.88
2023-04-02T05:16:57.350Z,42732.06
2023-04-02T05:22:14.902Z,42694.38
2023-04-02T05:27:27.548Z,40905.46
2023-04-02T05:32:37.745Z,41299.72
2023-04-02T05:37:43.483Z,41405.75
2023-04-02T05:42:51.181Z,39416.33
2023-04-02T05:48:01.685Z,38678.79
2023-04-02T05:53:18.222Z,38919.12
2023-04-02T06:03:46.196Z,40118.70
2023-04-02T06:08:58.935Z,40779.23
2023-04-02T06:14:04.662Z,40490.19
2023-04-02T06:19:14.710Z,40509.65
2023-04-02T06:24:26.502Z,39838.89
2023-04-02T06:29:38.473Z,38758.40
2023-04-02T06:34:43.747Z,39633.17
2023-04-02T06:39:52.216Z,39331.47
2023-04-02T06:44:56.661Z,39292.61
2023-04-02T06:50:24.452Z,38388.73
2023-04-02T06:55:34.070Z,39454.89
2023-04-02T07:00:42.431Z,39833.88
2023-04-02T07:05:52.375Z,40867.45
2023-04-02T07:10:59.768Z,40463.18
2023-04-02T07:16:06.495Z,40291.55
2023-04-02T07:21:10.994Z,39929.36
2023-04-02T07:26:17.577Z,40503.19
2023-04-02T07:31:24.760Z,39791.50
2023-04-02T07:36:30.869Z,39741.40
2023-04-02T07:41:51.339Z,41059.35
2023-04-02T07:46:54.952Z,40645.06
2023-04-02T07:51:58.366Z,40311.98
2023-04-02T07:57:03.189Z,40840.84
2023-04-02T08:02:07.023Z,39650.34
2023-04-02T08:07:10.493Z,40586.72
2023-04-02T08:12:15.686Z,39331.76
2023-04-02T08:17:19.107Z,38735.45
2023-04-02T08:22:24.600Z,40354.23
2023-04-02T08:27:31.658Z,39672.86
2023-04-02T08:32:35.103Z,39777.82
2023-04-02T08:37:38.609Z,39646.63
2023-04-02T08:42:49.535Z,39559.18
2023-04-02T08:47:56.670Z,38563.04
2023-04-02T08:53:04.372Z,38626.87
2023-04-02T08:58:16.160Z,38992.62
2023-04-02T09:03:20.961Z,39527.28
2023-04-02T09:08:28.302Z,39197.64
2023-04-02T09:13:38.947Z,39267.35
2023-04-02T09:18:48.255Z,40608.08
2023-04-02T09:23:53.789Z,40931.52
2023-04-02T09:29:03.675Z,40698.24
2023-04-02T09:34:21.947Z,41297.14
2023-04-02T09:39:26.996Z,42073.84
2023-04-02T09:44:32.042Z,41033.55
2023-04-02T09:49:40.042Z,41454.06
2023-04-02T09:54:43.470Z,41675.34
2023-04-02T10:00:10.432Z,40806.21
2023-04-02T10:05:39.405Z,41347.79
2023-04-02T10:10:50.816Z,40797.24
2023-04-02T10:16:01.037Z,41388.55
2023-04-02T10:21:11.261Z,41643.25
2023-04-02T10:26:27.433Z,41810.37
2023-04-02T10:31:38.942Z,42781.74
2023-04-02T10:36:50.664Z,43189.81
2023-04-02T10:42:00.208Z,43738.95
2023-04-02T10:47:10.462Z,43219.51
2023-04-02T10:52:19.763Z,42683.58
2023-04-02T10:57:36.419Z,43359.04
2023-04-02T11:02:47.174Z,43353.33
2023-04-02T11:07:55.880Z,43922.19
2023-04-02T11:13:08.560Z,44004.28
2023-04-02T11:18:27.467Z,43833.09
2023-04-02T11:23:33.780Z,43792.52
2023-04-02T11:28:37.245Z,44254.57
2023-04-02T11:33:46.005Z,44552.19
2023-04-02T11:38:52.949Z,45078.80
2023-04-02T11:44:02.745Z,44448.96
2023-04-02T11:49:27.017Z,44319.89
2023-04-02T11:54:38.362Z,44854.00
2023-04-02T11:59:49.950Z,45566.21
2023-04-02T12:05:05.359Z,46095.05
2023-04-02T12:10:19.061Z,46109.71
2023-04-02T12:15:33.368Z,45051.93
2023-04-02T12:20:39.313Z,45847.72
2023-04-02T12:25:54.341Z,45414.37
2023-04-02T12:31:06.064Z,44404.20
2023-04-02T12:36:20.332Z,45626.71
2023-04-02T12:41:30.375Z,41651.08
2023-04-02T12:46:35.715Z,40178.43
2023-04-02T12:51:41.906Z,39835.08
2023-04-02T12:56:46.774Z,40299.71
2023-04-02T13:01:57.180Z,41885.29
2023-04-02T13:07:03.022Z,43147.84
2023-04-02T13:12:25.422Z,43740.84
2023-04-02T13:17:38.641Z,41540.53
2023-04-02T13:22:42.181Z,40758.47
2023-04-02T13:27:47.008Z,40889.76
2023-04-02T13:32:50.510Z,40519.54
2023-04-02T13:37:56.271Z,41219.43
2023-04-02T13:43:02.835Z,42242.54
2023-04-02T13:48:07.406Z,42795.39
2023-04-02T13:53:22.084Z,42824.41
2023-04-02T13:58:29.190Z,42383.75
2023-04-02T14:03:35.688Z,44333.81
2023-04-02T14:08:49.118Z,44378.52
2023-04-02T14:14:07.577Z,44326.41
2023-04-02T14:19:21.093Z,45275.52
2023-04-02T14:24:32.691Z,45136.51
2023-04-02T14:29:47.349Z,45514.39
2023-04-02T14:34:57.741Z,44879.54
2023-04-02T14:40:08.892Z,45392.29
2023-04-02T14:45:21.358Z,45426.79
2023-04-02T14:50:29.557Z,45481.18
2023-04-02T14:55:37.994Z,46191.22
2023-04-02T15:00:45.826Z,46167.20
2023-04-02T15:05:56.626Z,45556.19
2023-04-02T15:11:07.888Z,46192.23
2023-04-02T15:16:19.203Z,45473.23
2023-04-02T15:21:43.414Z,44817.93
2023-04-02T15:27:01.419Z,42296.15
2023-04-02T15:32:23.935Z,43829.60
2023-04-02T15:37:34.548Z,45225.20
2023-04-02T15:42:44.228Z,44065.41
2023-04-02T15:48:02.702Z,44451.38
2023-04-02T15:53:17.974Z,45626.38
2023-04-02T15:58:35.627Z,46149.00
2023-04-02T16:03:55.926Z,45189.57
2023-04-02T16:09:08.559Z,45618.15
2023-04-02T16:14:17.917Z,45777.84
2023-04-02T16:19:27.489Z,46152.87
2023-04-02T16:24:30.870Z,46443.93
2023-04-02T16:35:31.054Z,46859.06
2023-04-02T16:40:38.076Z,46772.39
2023-04-02T16:45:52.276Z,46963.77
2023-04-02T16:51:10.904Z,46514.51
2023-04-02T16:56:23.555Z,45541.85
2023-04-02T17:01:35.324Z,46030.51
2023-04-02T17:06:43.518Z,47228.92
2023-04-02T17:11:50.502Z,46887.40
2023-04-02T17:16:59.539Z,47046.61
2023-04-02T17:22:07.753Z,48078.05
2023-04-02T17:27:22.968Z,48079.07
2023-04-02T17:32:29.817Z,44941.88
2023-04-02T17:37:41.563Z,45351.65
2023-04-02T17:42:58.390Z,46746.69
2023-04-02T17:48:05.542Z,46865.83
2023-04-02T17:53:21.780Z,46594.91
2023-04-02T17:58:44.050Z,46352.82
2023-04-02T18:03:52.168Z,46478.95
2023-04-02T18:09:05.918Z,46726.04
2023-04-02T18:14:27.861Z,46172.97
2023-04-02T18:19:40.698Z,45887.89
2023-04-02T18:24:59.201Z,45657.95
2023-04-02T18:30:15.671Z,47210.48
2023-04-02T18:35:26.762Z,47402.75
2023-04-02T18:40:43.403Z,47972.65
2023-04-02T18:45:56.249Z,46734.35
2023-04-02T18:51:03.971Z,47833.00
2023-04-02T18:56:13.938Z,47943.55
2023-04-02T19:01:22.306Z,48944.25
2023-04-02T19:06:31.493Z,49517.77
2023-04-02T19:11:38.751Z,49230.00
2023-04-02T19:16:55.850Z,49100.79
2023-04-02T19:22:12.693Z,48728.38
2023-04-02T19:27:27.260Z,47604.05
2023-04-02T19:32:36.637Z,48881.87
2023-04-02T19:37:42.495Z,48957.23
2023-04-02T19:42:49.933Z,48899.79
2023-04-02T19:47:57.921Z,49274.64
2023-04-02T19:53:01.299Z,48362.49
2023-04-02T19:58:18.723Z,48707.23
2023-04-02T20:03:23.657Z,49357.41
2023-04-02T20:08:27.190Z,49615.98
2023-04-02T20:13:32.265Z,50642.04
2023-04-02T20:18:37.145Z,50444.53
2023-04-02T20:23:46.116Z,51147.81
2023-04-02T20:28:50.962Z,51244.35
2023-04-02T20:33:57.509Z,51085.86
2023-04-02T20:39:03.621Z,51271.14
2023-04-02T20:44:08.504Z,51375.61
2023-04-02T20:49:12.099Z,51206.21
2023-04-02T20:54:15.492Z,50908.84
2023-04-02T20:59:20.370Z,50611.56
2023-04-02T21:04:28.325Z,51134.81
2023-04-02T21:09:32.155Z,51824.59
2023-04-02T21:14:39.130Z,51341.31
2023-04-02T21:19:42.613Z,50773.02
2023-04-02T21:24:45.980Z,50774.70
2023-04-02T21:29:53.488Z,50910.90
2023-04-02T21:34:56.891Z,50549.37
2023-04-02T21:40:02.681Z,49975.40
2023-04-02T21:45:08.158Z,50092.45
2023-04-02T21:50:14.558Z,50968.15
2023-04-02T21:55:21.055Z,50623.09
2023-04-02T22:00:28.344Z,51068.58
2023-04-02T22:05:31.776Z,49497.73
2023-04-02T22:10:37.712Z,47718.57
2023-04-02T22:15:42.658Z,47186.13
2023-04-02T22:20:46.191Z,47766.75
2023-04-02T22:25:49.852Z,48212.44
2023-04-02T22:30:55.451Z,48693.15
2023-04-02T22:35:59.521Z,49095.71
2023-04-02T22:41:04.496Z,49255.19
2023-04-02T22:46:10.171Z,49362.25
2023-04-02T22:51:16.029Z,48826.41
2023-04-02T22:56:21.709Z,47498.59
2023-04-02T23:01:27.815Z,48806.93
2023-04-02T23:06:32.091Z,48994.13
2023-04-02T23:11:35.656Z,49896.30
2023-04-02T23:16:40.439Z,50089.44
2023-04-02T23:21:44.008Z,50822.70
2023-04-02T23:26:47.392Z,50393.59
2023-04-02T23:31:52.229Z,49863.24
2023-04-02T23:36:55.608Z,49469.84
2023-04-02T23:42:00.745Z,53365.31
2023-04-02T23:47:05.856Z,53527.13
2023-04-02T23:52:09.454Z,53735.25
2023-04-02T23:57:12.853Z,53776.56
